Asahimaru No17 — JI3569 — position and weather

sailwx.info

Track history (hours):
 
Tides and Currents Weather Stations Pressure Air Temp Water Temp Dewpoint Dewpoint Depression Visibility Wind Speed Wind Dir Waves Ship Positions

Asahimaru No17

Last reported at 2017-Sep-20 08:21 UTC. Time now 2017-Sep-22 00:52 UTC.
Position N 34°36' E 135°05'.

Length 76 m.

Type: Cargo ship. MMSI: 431300202.

Date/timePositionNaut miles runAvg speedWind from/ knotsBaromVisibWave heightAir tempDewpointWater temp
2017-Sep-20 08:21N 34°36' E 135°05'411.8
2017-Sep-20 08:00N 34°37' E 135°10'610.8
2017-Sep-20 07:26N 34°37' E 135°17'7 1.5
2017-Sep-20 02:52N 34°39' E 135°25'3 8.4
2017-Sep-20 02:30N 34°38' E 135°22'510.3
2017-Sep-20 02:00N 34°36' E 135°16'610.8
2017-Sep-20 01:29N 34°35' E 135°10'  
2017-Sep-14 09:03N 35°03' E 139°34'110.7
2017-Sep-14 08:58N 35°04' E 139°35'511.2
2017-Sep-14 08:30N 35°07' E 139°40'611.4
2017-Sep-14 07:59N 35°11' E 139°45'610.5
2017-Sep-14 07:24N 35°17' E 139°45'511.6
2017-Sep-14 06:58N 35°22' E 139°42'511.4
2017-Sep-14 06:30N 35°26' E 139°45'4 8.6
2017-Sep-14 05:59N 35°31' E 139°46'1 2.8
2017-Sep-14 05:30N 35°32' E 139°46'0 0.0
2017-Sep-14 02:10N 35°32' E 139°46'0 0.0
2017-Sep-14 01:58N 35°32' E 139°46'1 1.6
2017-Sep-14 01:29N 35°31' E 139°46'3 5.8
2017-Sep-14 00:57N 35°30' E 139°49'0 0.2
2017-Sep-14 00:27N 35°30' E 139°49'0 0.1
2017-Sep-13 23:52N 35°30' E 139°49'  
2017-Sep-10 20:24N 35°31' E 139°54'511.7
2017-Sep-10 19:59N 35°28' E 139°50'611.7
2017-Sep-10 19:28N 35°23' E 139°46'511.4
2017-Sep-10 19:00N 35°17' E 139°45'611.5
2017-Sep-10 18:30N 35°12' E 139°47'611.3
2017-Sep-10 17:59N 35°06' E 139°45'  
Track history (hours):
 
Tides and Currents Weather Stations Pressure Air Temp Water Temp Dewpoint Dewpoint Depression Visibility Wind Speed Wind Dir Waves Ship Positions

Asahimaru No17

Last reported at 2017-Sep-20 08:21 UTC. Time now 2017-Sep-22 00:52 UTC.
Position N 34°36' E 135°05'.

Length 76 m.

Type: Cargo ship. MMSI: 431300202.

Date/timePositionNaut miles runAvg speedWind from/ knotsBaromVisibWave heightAir tempDewpointWater temp
2017-Sep-20 08:21N 34°36' E 135°05'411.8
2017-Sep-20 08:00N 34°37' E 135°10'610.8
2017-Sep-20 07:26N 34°37' E 135°17'7 1.5
2017-Sep-20 02:52N 34°39' E 135°25'3 8.4
2017-Sep-20 02:30N 34°38' E 135°22'510.3
2017-Sep-20 02:00N 34°36' E 135°16'610.8
2017-Sep-20 01:29N 34°35' E 135°10'  
2017-Sep-14 09:03N 35°03' E 139°34'110.7
2017-Sep-14 08:58N 35°04' E 139°35'511.2
2017-Sep-14 08:30N 35°07' E 139°40'611.4
2017-Sep-14 07:59N 35°11' E 139°45'610.5
2017-Sep-14 07:24N 35°17' E 139°45'511.6
2017-Sep-14 06:58N 35°22' E 139°42'511.4
2017-Sep-14 06:30N 35°26' E 139°45'4 8.6
2017-Sep-14 05:59N 35°31' E 139°46'1 2.8
2017-Sep-14 05:30N 35°32' E 139°46'0 0.0
2017-Sep-14 02:10N 35°32' E 139°46'0 0.0
2017-Sep-14 01:58N 35°32' E 139°46'1 1.6
2017-Sep-14 01:29N 35°31' E 139°46'3 5.8
2017-Sep-14 00:57N 35°30' E 139°49'0 0.2
2017-Sep-14 00:27N 35°30' E 139°49'0 0.1
2017-Sep-13 23:52N 35°30' E 139°49'  
2017-Sep-10 20:24N 35°31' E 139°54'511.7
2017-Sep-10 19:59N 35°28' E 139°50'611.7
2017-Sep-10 19:28N 35°23' E 139°46'511.4
2017-Sep-10 19:00N 35°17' E 139°45'611.5
2017-Sep-10 18:30N 35°12' E 139°47'611.3
2017-Sep-10 17:59N 35°06' E 139°45'  

Dump ship's entire track history